Time;durP1;ratioP1;P1;durP2;ratioP2;P2;SDS_P1;SDS_P2;PMS_P1;PMS_P2;Temp;Humidity;BMP_temperature;BMP_pressure;BME280_temperature;BME280_humidity;BME280_pressure;Samples;Min_cycle;Max_cycle;Signal;HPM_P1;HPM_P2
2022/10/03 00:03:22;;;;;;;6.67;2.10;;;;;;;11.14;100.00;98882.08;1745017;82;21237;-80
2022/10/03 00:07:02;;;;;;;3.08;2.20;;;;;;;11.16;100.00;98886.30;1747913;82;21194;-83
2022/10/03 00:10:23;;;;;;;3.10;2.15;;;;;;;11.18;100.00;98877.33;1743711;82;21226;-80
2022/10/03 00:14:03;;;;;;;2.92;1.92;;;;;;;11.22;100.00;98883.22;1747612;82;21202;-80
2022/10/03 00:17:35;;;;;;;5.17;2.25;;;;;;;11.27;100.00;98887.52;1691218;81;21212;-80
2022/10/03 00:21:29;;;;;;;3.08;1.87;;;;;;;11.29;100.00;98885.92;1743667;82;21212;-80
2022/10/03 00:24:46;;;;;;;2.90;1.65;;;;;;;11.23;100.00;98878.05;1719515;83;21273;-80
2022/10/03 00:27:57;;;;;;;2.42;2.00;;;;;;;11.19;100.00;98880.90;1743780;82;21181;-80
2022/10/03 00:31:20;;;;;;;4.20;2.10;;;;;;;11.11;99.64;98886.63;1719505;82;21772;-80
2022/10/03 00:34:51;;;;;;;2.55;1.75;;;;;;;11.07;99.18;98882.64;1743419;82;21193;-82
2022/10/03 00:38:10;;;;;;;3.22;1.80;;;;;;;10.99;98.92;98887.27;1720180;83;21226;-81
2022/10/03 00:41:32;;;;;;;3.45;2.00;;;;;;;10.78;99.39;98891.63;1715704;82;21845;-80
2022/10/03 00:45:18;;;;;;;6.53;2.00;;;;;;;10.70;99.81;98895.94;1719934;83;21364;-80
2022/10/03 00:48:45;;;;;;;4.15;2.72;;;;;;;10.61;100.00;98893.11;1743343;82;21188;-82
2022/10/03 00:51:58;;;;;;;5.12;2.70;;;;;;;10.51;100.00;98896.80;1720788;83;21214;-81
2022/10/03 00:55:05;;;;;;;11.83;2.90;;;;;;;10.39;100.00;98893.83;1742444;82;21191;-81
2022/10/03 00:58:17;;;;;;;7.62;3.30;;;;;;;10.19;100.00;98896.52;1743781;82;21244;-81
2022/10/03 01:01:50;;;;;;;10.08;3.02;;;;;;;10.14;100.00;98894.41;1719632;83;21246;-81
2022/10/03 01:05:28;;;;;;;7.97;3.70;;;;;;;10.04;100.00;98891.25;1686944;81;21213;-81
2022/10/03 01:09:30;;;;;;;9.48;3.60;;;;;;;10.01;100.00;98894.91;1720621;83;21312;-81
2022/10/03 01:12:56;;;;;;;8.70;3.83;;;;;;;9.98;100.00;98890.72;1742328;82;21530;-81
2022/10/03 01:16:36;;;;;;;6.60;3.67;;;;;;;9.87;100.00;98896.23;1720036;83;21896;-81
2022/10/03 01:20:11;;;;;;;8.83;4.60;;;;;;;9.83;100.00;98897.69;1743233;82;21774;-81
2022/10/03 01:23:44;;;;;;;8.18;3.60;;;;;;;9.86;100.00;98908.22;1743746;82;21881;-81
2022/10/03 01:27:14;;;;;;;7.40;4.08;;;;;;;9.78;100.00;98902.93;1720911;83;21250;-81
2022/10/03 01:30:23;;;;;;;6.47;3.70;;;;;;;9.76;100.00;98905.56;1742924;82;21802;-81
2022/10/03 01:33:40;;;;;;;7.92;3.52;;;;;;;9.75;100.00;98911.55;1743764;82;21177;-81
2022/10/03 01:37:14;;;;;;;6.95;3.47;;;;;;;9.71;100.00;98912.48;1720741;83;21190;-81
2022/10/03 01:40:46;;;;;;;8.83;3.75;;;;;;;9.74;100.00;98915.34;1733038;82;21843;-81
2022/10/03 01:44:05;;;;;;;7.92;3.50;;;;;;;9.50;100.00;98924.03;1742418;82;21747;-81
2022/10/03 01:47:27;;;;;;;6.30;3.95;;;;;;;9.42;100.00;98929.16;1719715;83;21281;-80
2022/10/03 01:51:10;;;;;;;8.60;4.20;;;;;;;9.42;100.00;98929.16;1742617;82;21180;-81
2022/10/03 01:54:47;;;;;;;7.92;3.95;;;;;;;9.40;100.00;98936.16;1720967;83;21780;-80
2022/10/03 01:58:15;;;;;;;6.72;3.67;;;;;;;9.37;100.00;98930.30;1743835;82;21177;-80
2022/10/03 02:02:05;;;;;;;8.83;3.72;;;;;;;9.34;100.00;98933.41;1719469;83;21813;-80
2022/10/03 02:05:38;;;;;;;6.78;4.00;;;;;;;9.31;100.00;98937.38;1743917;82;21818;-81
2022/10/03 02:09:04;;;;;;;8.50;3.65;;;;;;;9.27;100.00;98941.58;1742291;82;21201;-80
2022/10/03 02:12:18;;;;;;;7.85;4.33;;;;;;;9.28;100.00;98941.89;1720803;83;21214;-80
2022/10/03 02:15:53;;;;;;;7.58;4.25;;;;;;;9.29;100.00;98954.48;1743733;82;21747;-80
2022/10/03 02:19:17;;;;;;;12.85;4.53;;;;;;;9.34;100.00;98959.34;1717558;83;21232;-81
2022/10/03 02:22:38;;;;;;;10.23;4.17;;;;;;;9.36;100.00;98970.88;1752982;82;21186;-80
2022/10/03 02:25:51;;;;;;;7.00;4.25;;;;;;;9.37;100.00;98974.80;1747700;82;21198;-81
2022/10/03 02:29:18;;;;;;;8.00;4.78;;;;;;;9.29;100.00;98979.56;1744948;82;21174;-82
2022/10/03 02:33:00;;;;;;;7.22;4.62;;;;;;;9.26;100.00;98973.97;1746876;82;21229;-80
2022/10/03 02:36:53;;;;;;;12.60;4.58;;;;;;;9.24;100.00;98980.16;1745357;82;21186;-81
2022/10/03 02:40:39;;;;;;;13.70;5.00;;;;;;;9.18;100.00;98974.16;1747478;82;21218;-80
2022/10/03 02:44:16;;;;;;;8.00;4.20;;;;;;;9.15;100.00;98979.47;1744945;82;21716;-80
2022/10/03 02:48:01;;;;;;;11.83;5.42;;;;;;;9.15;100.00;98985.45;1699895;82;21290;-80
2022/10/03 02:51:46;;;;;;;8.60;3.72;;;;;;;9.12;100.00;98994.02;1744219;82;21336;-80
2022/10/03 02:59:26;;;;;;;8.58;4.10;;;;;;;9.19;100.00;99004.48;1610053;86;21630;-81
2022/10/03 03:03:17;;;;;;;8.08;4.03;;;;;;;9.21;100.00;99001.02;1688324;85;21227;-81
2022/10/03 03:06:51;;;;;;;8.30;4.08;;;;;;;9.18;100.00;99006.89;1752976;82;21199;-81
2022/10/03 03:10:27;;;;;;;5.67;3.42;;;;;;;9.09;100.00;99009.44;1753208;82;21176;-81
2022/10/03 03:13:53;;;;;;;10.88;3.72;;;;;;;9.07;100.00;99010.14;1753200;82;21179;-81
2022/10/03 03:17:22;;;;;;;10.23;3.92;;;;;;;9.01;100.00;99015.04;1753010;82;21702;-80
2022/10/03 03:20:40;;;;;;;7.08;3.80;;;;;;;8.94;100.00;99015.00;1752760;82;21219;-80
2022/10/03 03:24:09;;;;;;;8.98;4.20;;;;;;;8.85;100.00;99023.84;1751658;82;22515;-81
2022/10/03 03:27:35;;;;;;;13.48;5.35;;;;;;;8.87;100.00;99029.92;1751897;82;21301;-80
2022/10/03 03:31:01;;;;;;;10.20;4.62;;;;;;;8.91;100.00;99042.13;1752625;82;22003;-81
2022/10/03 03:34:11;;;;;;;10.10;4.00;;;;;;;9.02;100.00;99042.63;1752896;82;21259;-81
2022/10/03 03:37:22;;;;;;;6.25;3.35;;;;;;;9.03;100.00;99056.06;1752950;82;21180;-80
2022/10/03 03:40:39;;;;;;;4.70;3.40;;;;;;;9.04;100.00;99056.93;1752437;82;21793;-81
2022/10/03 03:44:28;;;;;;;8.43;3.85;;;;;;;8.99;100.00;99051.20;1745862;82;21239;-80
2022/10/03 03:47:56;;;;;;;7.10;3.60;;;;;;;9.01;100.00;99045.88;1722604;83;21200;-81
2022/10/03 03:51:20;;;;;;;6.08;3.65;;;;;;;9.04;100.00;99053.68;1722385;83;21147;-81
2022/10/03 03:54:56;;;;;;;7.28;4.00;;;;;;;9.00;100.00;99054.27;1722524;83;21215;-80
2022/10/03 03:58:33;;;;;;;8.83;3.67;;;;;;;9.00;100.00;99057.00;1729758;82;21280;-80
2022/10/03 04:01:58;;;;;;;8.78;4.25;;;;;;;9.00;100.00;99062.45;1735392;82;21213;-81
2022/10/03 04:05:30;;;;;;;4.78;3.52;;;;;;;8.90;100.00;99055.97;1736623;82;21801;-81
2022/10/03 04:09:10;;;;;;;9.90;3.80;;;;;;;8.96;100.00;99064.20;1736607;82;21173;-80
2022/10/03 04:12:56;;;;;;;4.67;3.05;;;;;;;8.99;100.00;99064.83;1735521;82;21267;-81
2022/10/03 04:18:56;;;;;;;6.67;3.72;;;;;;;8.99;100.00;99068.92;1735284;82;21193;-80
2022/10/03 04:20:03;;;;;;;6.95;3.10;;;;;;;9.03;100.00;99079.77;1736692;82;21206;-81
2022/10/03 04:23:32;;;;;;;5.10;3.47;;;;;;;9.04;100.00;99079.59;1736454;82;21358;-81
2022/10/03 04:26:58;;;;;;;11.63;3.42;;;;;;;9.10;100.00;99077.43;1736444;82;21177;-81
2022/10/03 04:30:28;;;;;;;8.43;3.42;;;;;;;9.12;100.00;99093.07;1736565;82;21233;-81
2022/10/03 04:33:58;;;;;;;5.60;3.47;;;;;;;9.21;100.00;99091.05;1737212;82;21244;-81
2022/10/03 04:37:26;;;;;;;8.33;3.80;;;;;;;9.36;100.00;99100.02;1736555;82;21852;-81
2022/10/03 04:41:22;;;;;;;7.53;3.62;;;;;;;9.46;100.00;99102.39;1736690;82;21228;-81
2022/10/03 04:45:03;;;;;;;8.45;3.37;;;;;;;9.53;100.00;99109.26;1677280;82;21280;-80
2022/10/03 04:48:32;;;;;;;13.03;3.65;;;;;;;9.62;100.00;99109.43;1736523;82;21217;-83
2022/10/03 04:52:21;;;;;;;7.30;3.50;;;;;;;9.68;100.00;99112.19;1735878;82;21220;-81
2022/10/03 04:55:54;;;;;;;4.92;3.10;;;;;;;9.78;100.00;99114.56;1735307;82;21189;-80
2022/10/03 04:59:39;;;;;;;8.40;3.67;;;;;;;9.90;100.00;99116.23;1736628;81;22425;-80
2022/10/03 05:03:20;;;;;;;10.58;3.12;;;;;;;10.02;100.00;99127.42;1762957;81;21340;-80
2022/10/03 05:06:46;;;;;;;7.90;3.60;;;;;;;10.13;100.00;99133.17;1748427;81;21904;-81
2022/10/03 05:10:09;;;;;;;6.65;3.40;;;;;;;10.25;100.00;99143.02;1735307;81;21205;-81
2022/10/03 05:13:58;;;;;;;10.85;3.55;;;;;;;10.28;100.00;99145.36;1737787;81;21846;-81
2022/10/03 05:17:24;;;;;;;5.95;3.25;;;;;;;10.38;100.00;99144.98;1741147;81;21193;-82
2022/10/03 05:20:39;;;;;;;7.50;2.72;;;;;;;10.49;100.00;99142.53;1735055;81;21830;-82
2022/10/03 05:24:12;;;;;;;10.00;3.12;;;;;;;10.65;100.00;99147.31;1710641;83;22082;-82
2022/10/03 05:27:55;;;;;;;10.98;3.80;;;;;;;10.62;100.00;99152.66;1729935;81;21801;-81
2022/10/03 05:31:12;;;;;;;7.28;3.08;;;;;;;10.73;100.00;99156.19;1733292;81;21173;-81
2022/10/03 05:34:58;;;;;;;5.25;2.72;;;;;;;10.83;100.00;99162.63;1737846;81;21244;-80
2022/10/03 05:38:26;;;;;;;4.85;2.85;;;;;;;10.91;100.00;99164.31;1725658;81;21267;-81
2022/10/03 05:41:43;;;;;;;4.67;2.90;;;;;;;10.98;100.00;99163.30;1736678;81;22572;-81
2022/10/03 05:45:04;;;;;;;6.30;3.50;;;;;;;11.03;100.00;99171.41;1736248;81;21189;-81
2022/10/03 05:48:46;;;;;;;6.22;2.58;;;;;;;11.03;100.00;99180.46;1737165;81;21284;-81
2022/10/03 05:52:24;;;;;;;12.00;3.40;;;;;;;11.04;100.00;99183.52;1746963;81;21189;-82
2022/10/03 05:56:08;;;;;;;3.67;2.52;;;;;;;11.06;100.00;99188.80;1730814;81;21244;-81
2022/10/03 06:00:06;;;;;;;6.20;3.00;;;;;;;11.07;100.00;99184.47;1728660;80;21183;-80
2022/10/03 06:04:13;;;;;;;6.42;3.35;;;;;;;11.18;100.00;99195.33;1743137;80;21786;-81
2022/10/03 06:07:41;;;;;;;7.30;3.33;;;;;;;11.34;100.00;99190.85;1747733;80;21229;-81
2022/10/03 06:11:19;;;;;;;6.45;3.17;;;;;;;11.50;100.00;99195.91;1743210;80;21455;-80
2022/10/03 06:14:44;;;;;;;5.55;2.90;;;;;;;11.58;100.00;99200.88;1743079;80;21211;-81
2022/10/03 06:18:31;;;;;;;10.28;3.27;;;;;;;11.60;100.00;99194.66;1743585;80;21219;-81
2022/10/03 06:22:28;;;;;;;4.97;3.33;;;;;;;11.54;100.00;99199.08;1728936;80;45280;-80
2022/10/03 06:25:44;;;;;;;5.92;3.52;;;;;;;11.67;100.00;99201.83;1737489;81;21211;-80
2022/10/03 06:29:27;;;;;;;6.08;3.22;;;;;;;11.79;100.00;99204.77;1700766;82;21197;-81
2022/10/03 06:33:09;;;;;;;10.35;3.77;;;;;;;11.84;100.00;99213.75;1743265;81;21210;-80
2022/10/03 06:36:23;;;;;;;8.50;3.37;;;;;;;11.95;100.00;99213.11;1718949;81;21242;-80
2022/10/03 06:40:10;;;;;;;11.48;4.17;;;;;;;12.02;100.00;99218.07;1692212;83;21211;-80
2022/10/03 06:43:47;;;;;;;10.03;3.45;;;;;;;12.11;100.00;99214.59;1721915;81;21216;-80
2022/10/03 06:47:09;;;;;;;8.45;3.65;;;;;;;12.30;100.00;99210.97;1717547;81;21294;-81
2022/10/03 06:51:00;;;;;;;11.38;4.25;;;;;;;12.47;100.00;99221.80;1689361;83;21311;-82
2022/10/03 06:54:47;;;;;;;7.12;3.30;;;;;;;12.61;100.00;99220.36;1695864;83;21229;-80
2022/10/03 06:58:27;;;;;;;7.90;3.55;;;;;;;12.77;98.94;99230.87;1699289;83;21236;-81
2022/10/03 07:02:02;;;;;;;8.48;3.77;;;;;;;12.97;98.08;99233.00;1663027;84;21284;-80
2022/10/03 07:05:35;;;;;;;5.83;3.22;;;;;;;13.11;95.78;99238.44;1712626;82;21223;-81
2022/10/03 07:09:10;;;;;;;6.55;3.47;;;;;;;13.18;95.62;99235.98;1728610;81;21176;-81
2022/10/03 07:12:51;;;;;;;5.87;3.00;;;;;;;13.33;95.41;99234.88;1725114;81;21227;-80
2022/10/03 07:16:19;;;;;;;7.90;3.50;;;;;;;13.45;94.17;99233.93;1726083;81;21208;-80
2022/10/03 07:19:53;;;;;;;7.00;3.02;;;;;;;13.53;93.39;99240.54;1702032;83;21200;-81
2022/10/03 07:23:17;;;;;;;5.17;2.65;;;;;;;13.65;92.90;99246.72;1702639;82;21235;-81
2022/10/03 07:27:03;;;;;;;7.20;3.50;;;;;;;13.73;91.39;99238.19;1704805;82;21163;-81
2022/10/03 07:30:24;;;;;;;6.25;3.00;;;;;;;13.77;91.35;99242.17;1683553;81;21168;-82
2022/10/03 07:33:36;;;;;;;8.50;2.80;;;;;;;13.90;90.82;99244.83;1698230;83;21210;-82
2022/10/03 07:40:56;;;;;;;11.55;3.47;;;;;;;14.03;87.01;99251.59;1700249;83;21196;-82
2022/10/03 07:44:16;;;;;;;12.00;3.42;;;;;;;14.10;88.91;99257.56;1663778;83;21273;-81
2022/10/03 07:48:00;;;;;;;5.35;2.80;;;;;;;14.19;88.19;99247.97;1665051;83;22206;-81
2022/10/03 07:51:44;;;;;;;10.98;3.10;;;;;;;14.25;85.91;99250.64;1680277;84;21205;-81
2022/10/03 07:55:21;;;;;;;11.55;3.08;;;;;;;14.31;86.59;99258.55;1686877;84;21247;-82
2022/10/03 07:58:53;;;;;;;6.25;2.40;;;;;;;14.44;86.01;99252.05;1679798;83;21185;-80
2022/10/03 08:02:18;;;;;;;9.20;2.45;;;;;;;14.58;84.85;99255.00;1615710;84;21256;-82
2022/10/03 08:06:06;;;;;;;7.62;2.87;;;;;;;14.79;83.64;99249.61;1832215;76;22287;-80
2022/10/03 08:09:23;;;;;;;5.30;2.30;;;;;;;14.83;83.34;99252.20;1794211;79;21182;-80
2022/10/03 09:39:59;;;;;;;8.63;1.82;;;;;;;15.82;70.32;99326.70;1739945;82;21246;-80
2022/10/03 09:43:21;;;;;;;6.95;2.50;;;;;;;15.80;69.78;99321.10;1647807;86;22254;-80
2022/10/03 09:47:21;;;;;;;3.77;1.70;;;;;;;15.91;72.30;99318.11;1727585;82;21670;-80
2022/10/03 09:50:19;;;;;;;;;;;;;;;16.14;70.74;99321.44;1732053;82;21263;-80
2022/10/03 09:54:00;;;;;;;9.48;2.08;;;;;;;16.19;68.01;99330.70;1708852;82;20251;-80
2022/10/03 09:57:44;;;;;;;4.03;2.00;;;;;;;16.17;69.42;99323.73;1719359;81;21460;-80
2022/10/03 10:01:16;;;;;;;4.67;2.20;;;;;;;16.32;70.36;99326.88;1688374;85;21271;-80
2022/10/03 10:05:07;;;;;;;5.55;1.90;;;;;;;16.48;69.50;99339.16;1703337;84;21547;-80
2022/10/03 10:08:19;;;;;;;3.00;1.50;;;;;;;16.43;67.52;99342.62;1713297;82;21199;-80
2022/10/03 10:12:10;;;;;;;3.67;1.60;;;;;;;16.41;66.93;99342.55;1700152;83;21184;-80
2022/10/03 10:15:46;;;;;;;;;;;;;;;16.45;65.03;99351.49;1636129;86;21369;-80
2022/10/03 10:19:08;;;;;;;7.25;1.75;;;;;;;16.46;62.95;99362.83;1715449;81;20213;-81
2022/10/03 10:22:43;;;;;;;7.25;1.30;;;;;;;16.34;62.61;99356.47;1735288;81;21271;-80
2022/10/03 10:26:17;;;;;;;2.58;1.30;;;;;;;16.23;62.16;99357.27;1716410;80;40232;-80
2022/10/03 10:29:30;;;;;;;3.80;1.15;;;;;;;16.06;62.69;99359.33;1700670;83;21207;-81
2022/10/03 10:32:48;;;;;;;2.87;1.20;;;;;;;15.97;63.19;99349.70;1682647;83;21640;-81
2022/10/03 10:36:31;;;;;;;3.02;1.30;;;;;;;16.09;64.02;99353.36;1679836;83;21257;-80
2022/10/03 10:39:45;;;;;;;2.50;1.37;;;;;;;16.20;64.78;99343.42;1687110;83;22334;-81
2022/10/03 10:43:17;;;;;;;8.08;1.40;;;;;;;16.41;64.73;99349.45;1689355;83;21204;-81
2022/10/03 10:46:59;;;;;;;3.15;1.07;;;;;;;16.60;64.82;99351.86;1677182;84;21510;-80
2022/10/03 10:51:03;;;;;;;6.55;1.50;;;;;;;16.69;64.08;99350.97;1701039;84;21798;-80
2022/10/03 10:54:52;;;;;;;8.73;1.42;;;;;;;16.77;63.09;99352.58;1690466;84;21743;-81
2022/10/03 10:58:32;;;;;;;1.92;1.00;;;;;;;16.64;61.04;99352.78;1700738;84;21318;-81
2022/10/03 11:02:16;;;;;;;4.85;1.55;;;;;;;16.59;62.47;99352.95;1674592;84;21877;-80
2022/10/03 11:06:03;;;;;;;5.12;1.52;;;;;;;16.60;64.41;99350.48;1689255;84;21283;-81
2022/10/03 11:09:43;;;;;;;4.53;1.10;;;;;;;16.71;62.66;99350.76;1704182;84;21220;-80
2022/10/03 11:13:29;;;;;;;5.55;1.20;;;;;;;16.69;64.04;99354.28;1693906;84;21836;-82
2022/10/03 11:17:13;;;;;;;2.15;1.00;;;;;;;16.62;62.11;99361.31;1680610;82;21290;-82
2022/10/03 11:21:00;;;;;;;4.20;1.50;;;;;;;16.53;62.68;99360.81;1685030;82;21335;-82
2022/10/03 11:24:38;;;;;;;3.77;1.20;;;;;;;16.38;63.03;99363.20;1687080;85;21224;-82
2022/10/03 11:28:39;;;;;;;2.12;1.12;;;;;;;16.26;61.49;99359.02;1693259;83;27403;-80
2022/10/03 11:32:11;;;;;;;2.02;1.05;;;;;;;16.29;61.83;99363.23;1708244;83;21773;-82
2022/10/03 11:35:54;;;;;;;2.62;1.25;;;;;;;16.33;61.92;99360.31;1688290;85;22373;-81
2022/10/03 11:39:13;;;;;;;6.55;1.47;;;;;;;16.36;62.66;99358.44;1705018;83;21206;-81
2022/10/03 11:42:49;;;;;;;5.55;1.10;;;;;;;16.43;61.29;99363.87;1713854;82;21862;-81
2022/10/03 11:46:00;;;;;;;4.05;1.20;;;;;;;16.33;59.75;99361.69;1692378;83;21199;-80
2022/10/03 11:49:32;;;;;;;2.15;1.07;;;;;;;16.25;61.47;99368.37;1686377;84;21263;-81
2022/10/03 11:52:51;;;;;;;7.60;1.07;;;;;;;16.23;61.16;99370.55;1666882;85;21208;-81
2022/10/03 11:56:28;;;;;;;4.75;1.40;;;;;;;16.20;61.78;99361.35;1676050;83;21256;-81
2022/10/03 11:59:57;;;;;;;0.93;0.60;;;;;;;16.21;62.31;99360.27;1683662;83;21796;-82
2022/10/03 12:03:29;;;;;;;1.62;0.88;;;;;;;16.26;60.79;99356.26;1681742;83;21320;-82
2022/10/03 12:10:43;;;;;;;4.00;0.90;;;;;;;16.26;60.63;99356.26;1687500;83;21272;-81
2022/10/03 12:14:27;;;;;;;1.30;0.78;;;;;;;16.23;59.87;99356.75;1675402;83;21216;-80
2022/10/03 12:17:42;;;;;;;2.58;0.98;;;;;;;16.16;59.25;99362.89;1682706;83;21226;-81
2022/10/03 12:21:18;;;;;;;1.72;1.05;;;;;;;16.09;60.68;99360.77;1683205;83;21255;-81
2022/10/03 12:24:35;;;;;;;2.30;1.05;;;;;;;16.10;60.52;99359.17;1684179;84;21747;-81
2022/10/03 12:28:00;;;;;;;1.92;0.80;;;;;;;16.10;61.72;99362.47;1657441;86;21638;-81
2022/10/03 12:31:45;;;;;;;1.98;0.80;;;;;;;16.13;62.87;99360.59;1679256;84;21209;-81
2022/10/03 12:34:59;;;;;;;2.35;1.05;;;;;;;16.08;61.33;99361.84;1701783;84;21217;-81
2022/10/03 12:38:32;;;;;;;2.33;1.00;;;;;;;16.00;61.08;99356.14;1633061;87;21544;-81
2022/10/03 12:42:05;;;;;;;4.50;1.00;;;;;;;15.96;61.37;99354.09;1669138;84;21328;-81
2022/10/03 12:45:24;;;;;;;3.12;0.93;;;;;;;16.02;61.43;99351.22;1658976;86;21259;-81
2022/10/03 12:49:10;;;;;;;2.35;0.80;;;;;;;16.03;62.91;99353.44;1686755;84;21205;-81
2022/10/03 12:52:23;;;;;;;4.40;1.20;;;;;;;15.99;62.26;99364.09;1677220;84;21246;-81
2022/10/03 12:55:34;;;;;;;4.55;1.05;;;;;;;16.03;62.33;99366.69;1699577;84;21264;-82
2022/10/03 12:59:03;;;;;;;2.37;0.98;;;;;;;16.08;62.46;99375.09;1694839;84;21242;-80
2022/10/03 13:02:38;;;;;;;5.08;1.15;;;;;;;16.04;61.47;99375.29;1695328;84;21274;-81
2022/10/03 13:06:13;;;;;;;4.03;1.12;;;;;;;16.02;61.62;99381.56;1689952;84;21193;-81
2022/10/03 13:09:55;;;;;;;2.62;0.93;;;;;;;16.03;61.94;99375.50;1684392;84;21832;-81
2022/10/03 13:13:11;;;;;;;3.05;1.32;;;;;;;16.04;62.48;99374.42;1666397;85;21248;-80
2022/10/03 13:16:42;;;;;;;4.05;0.72;;;;;;;16.01;63.40;99388.16;1668962;85;21275;-80
2022/10/03 13:20:09;;;;;;;3.52;1.37;;;;;;;16.04;64.18;99380.80;1677218;84;21192;-81
2022/10/03 13:23:34;;;;;;;4.75;1.40;;;;;;;16.09;64.33;99375.94;1692262;83;21216;-81
2022/10/03 13:27:20;;;;;;;2.70;0.98;;;;;;;16.07;63.84;99376.72;1710942;83;21184;-80
2022/10/03 13:30:37;;;;;;;4.03;1.17;;;;;;;16.04;63.54;99378.05;1673785;83;21255;-80
2022/10/03 13:33:41;;;;;;;3.45;1.17;;;;;;;16.06;63.98;99378.64;1678430;83;21688;-81
2022/10/03 13:36:45;;;;;;;2.65;1.05;;;;;;;16.07;64.61;99377.56;1682910;83;21242;-81
2022/10/03 13:39:58;;;;;;;4.60;1.05;;;;;;;16.04;63.44;99378.05;1679210;85;21787;-81
2022/10/03 13:43:04;;;;;;;2.27;0.90;;;;;;;16.03;63.41;99378.26;1692957;84;21287;-80
2022/10/03 13:46:27;;;;;;;3.10;1.10;;;;;;;15.96;63.12;99378.37;1680725;83;21225;-81
2022/10/03 13:49:39;;;;;;;8.60;1.10;;;;;;;15.89;63.73;99385.88;1662771;85;21204;-81
2022/10/03 13:53:02;;;;;;;3.70;0.93;;;;;;;15.76;63.11;99375.02;1670741;84;21236;-80
2022/10/03 13:56:15;;;;;;;3.65;1.17;;;;;;;15.71;64.01;99372.12;1661159;85;21201;-81
2022/10/03 13:59:39;;;;;;;2.35;1.10;;;;;;;15.69;64.16;99378.42;1678458;85;21205;-81
2022/10/03 14:03:08;;;;;;;4.05;0.95;;;;;;;15.64;64.11;99375.52;1671453;83;21213;-81
2022/10/03 14:06:39;;;;;;;3.10;1.12;;;;;;;15.59;65.31;99381.70;1663818;83;21277;-80
2022/10/03 14:10:08;;;;;;;3.10;0.90;;;;;;;15.54;66.08;99383.77;1666850;85;21539;-81
2022/10/03 14:13:42;;;;;;;2.42;0.90;;;;;;;15.50;66.88;99385.30;1659417;84;21191;-81
2022/10/03 14:17:02;;;;;;;9.63;1.17;;;;;;;15.46;66.77;99386.83;1709156;82;21231;-81
2022/10/03 14:20:34;;;;;;;3.80;0.83;;;;;;;15.40;66.78;99393.81;1683671;84;21212;-82
2022/10/03 14:23:51;;;;;;;3.37;0.98;;;;;;;15.35;66.40;99404.14;1669388;85;21270;-80
2022/10/03 14:27:07;;;;;;;3.12;0.80;;;;;;;15.33;66.48;99398.00;1707213;82;21309;-80
2022/10/03 14:30:17;;;;;;;2.95;0.90;;;;;;;15.32;66.12;99395.78;1698662;82;21220;-81
2022/10/03 14:33:37;;;;;;;3.87;0.80;;;;;;;15.29;65.99;99396.27;1705913;84;21192;-80
2022/10/03 14:37:09;;;;;;;4.33;0.98;;;;;;;15.25;65.39;99403.84;1707673;84;21210;-80
2022/10/03 14:40:34;;;;;;;1.57;0.90;;;;;;;15.20;65.75;99402.30;1707551;84;21954;-81
2022/10/03 14:43:52;;;;;;;5.40;1.22;;;;;;;15.12;66.29;99406.19;1694740;84;21185;-80
2022/10/03 14:47:02;;;;;;;2.35;0.80;;;;;;;15.06;66.76;99413.45;1677714;85;21248;-80
2022/10/03 14:50:04;;;;;;;2.95;0.90;;;;;;;14.87;67.97;99413.11;1675062;85;21201;-80
2022/10/03 14:53:23;;;;;;;2.17;0.88;;;;;;;14.69;68.75;99427.66;1657822;85;21296;-80
2022/10/03 14:56:29;;;;;;;1.40;0.80;;;;;;;14.57;68.66;99433.03;1647016;87;21830;-80
2022/10/03 14:59:42;;;;;;;1.87;0.93;;;;;;;14.51;68.97;99435.31;1654450;85;21235;-80
2022/10/03 15:02:52;;;;;;;1.80;0.80;;;;;;;14.47;69.35;99432.66;1654581;86;21877;-81
2022/10/03 15:06:18;;;;;;;2.45;0.90;;;;;;;14.37;70.06;99439.73;1635242;87;21215;-80
2022/10/03 15:09:33;;;;;;;2.25;1.00;;;;;;;14.27;71.01;99440.22;1655731;85;21234;-80
2022/10/03 15:12:39;;;;;;;2.58;0.90;;;;;;;14.14;71.81;99445.26;1675160;85;21267;-80
2022/10/03 15:15:46;;;;;;;2.98;1.20;;;;;;;14.03;72.97;99445.44;1701055;84;21231;-80
2022/10/03 15:19:02;;;;;;;4.17;1.25;;;;;;;13.93;73.82;99436.82;1700442;84;21790;-79
2022/10/03 15:22:15;;;;;;;4.53;1.22;;;;;;;13.81;74.69;99439.93;1700832;84;21719;-80
2022/10/03 15:25:32;;;;;;;3.37;1.22;;;;;;;13.79;75.21;99440.70;1696361;84;21215;-80
2022/10/03 15:28:58;;;;;;;2.85;1.22;;;;;;;13.69;75.95;99445.78;1705130;84;21239;-82
2022/10/03 15:32:05;;;;;;;3.87;0.95;;;;;;;13.47;76.62;99444.72;1703393;84;21266;-80
2022/10/03 15:35:11;;;;;;;6.90;1.00;;;;;;;13.43;76.84;99459.09;1703456;84;21200;-80
2022/10/03 15:38:23;;;;;;;2.90;1.10;;;;;;;13.32;77.43;99468.85;1703763;84;21870;-80
2022/10/03 15:41:35;;;;;;;3.15;1.12;;;;;;;13.26;77.77;99471.06;1703148;84;21192;-80
2022/10/03 15:44:57;;;;;;;8.58;1.45;;;;;;;13.18;78.39;99469.91;1699711;84;21260;-80
2022/10/03 15:48:06;;;;;;;3.17;1.40;;;;;;;13.13;78.62;99468.33;1704505;84;21819;-81
2022/10/03 15:51:15;;;;;;;7.30;1.98;;;;;;;13.04;79.00;99469.07;1704243;84;21255;-81
2022/10/03 15:54:31;;;;;;;7.12;2.02;;;;;;;12.97;79.33;99474.55;1703196;84;21259;-80
2022/10/03 15:57:39;;;;;;;6.28;2.55;;;;;;;12.93;80.07;99475.19;1704200;84;21196;-80
2022/10/03 16:00:39;;;;;;;7.30;3.40;;;;;;;12.91;80.80;99479.52;1686289;84;21743;-81
2022/10/03 16:04:06;;;;;;;14.85;9.05;;;;;;;12.88;81.68;99474.45;1702875;84;21774;-81
2022/10/03 16:07:35;;;;;;;12.23;5.00;;;;;;;12.90;82.23;99479.75;1704266;84;21172;-80
2022/10/03 16:10:51;;;;;;;3.80;1.95;;;;;;;12.88;82.92;99481.30;1702921;84;21255;-80
2022/10/03 16:14:20;;;;;;;3.25;1.90;;;;;;;12.90;83.65;99482.48;1702415;84;21199;-80
2022/10/03 16:17:43;;;;;;;4.22;1.57;;;;;;;12.90;84.27;99477.00;1695490;84;21266;-80
2022/10/03 16:20:50;;;;;;;5.67;1.75;;;;;;;12.97;84.61;99477.83;1703951;84;21240;-80
2022/10/03 16:23:56;;;;;;;7.05;1.82;;;;;;;12.90;85.21;99478.38;1703219;84;21229;-80
2022/10/03 16:27:15;;;;;;;2.70;1.70;;;;;;;12.82;85.81;99473.93;1702628;84;21303;-81
2022/10/03 16:30:24;;;;;;;7.70;1.65;;;;;;;12.70;86.43;99476.97;1661344;84;21184;-80
2022/10/03 16:33:44;;;;;;;8.78;2.08;;;;;;;12.66;86.98;99480.69;1703811;84;21192;-81
2022/10/03 16:36:53;;;;;;;4.05;1.92;;;;;;;12.66;87.05;99484.80;1704948;83;22472;-80
2022/10/03 16:40:07;;;;;;;4.37;2.10;;;;;;;12.59;87.73;99478.45;1704075;84;21837;-81
2022/10/03 16:43:13;;;;;;;6.65;2.50;;;;;;;12.54;88.20;99487.30;1704195;84;21247;-81
2022/10/03 16:46:24;;;;;;;4.92;2.22;;;;;;;12.54;88.40;99485.94;1704236;84;21200;-81
2022/10/03 16:53:00;;;;;;;6.37;1.92;;;;;;;12.48;89.11;99492.27;1704189;84;21191;-80
2022/10/03 16:56:14;;;;;;;6.08;1.80;;;;;;;12.42;89.56;99489.50;1703531;84;21219;-80
2022/10/03 16:59:24;;;;;;;5.12;2.00;;;;;;;12.41;89.61;99498.25;1704323;84;21176;-81
2022/10/03 17:02:34;;;;;;;5.28;2.20;;;;;;;12.36;89.72;99492.55;1704098;84;21723;-80
2022/10/03 17:05:33;;;;;;;6.17;2.05;;;;;;;12.32;89.57;99490.42;1702858;84;21822;-81
2022/10/03 17:08:41;;;;;;;2.15;1.67;;;;;;;12.31;89.30;99490.95;1704227;84;21503;-80
2022/10/03 17:11:47;;;;;;;6.53;1.70;;;;;;;12.26;88.95;99492.11;1703227;84;21286;-80
2022/10/03 17:14:53;;;;;;;6.33;1.95;;;;;;;12.25;88.59;99484.41;1704334;84;21734;-80
2022/10/03 17:18:18;;;;;;;9.38;2.12;;;;;;;12.23;88.38;99487.90;1704397;84;21349;-80
2022/10/03 17:21:35;;;;;;;10.08;3.33;;;;;;;12.12;88.54;99493.97;1704361;84;21188;-81
2022/10/03 17:25:07;;;;;;;10.72;3.58;;;;;;;12.03;88.81;99487.81;1685875;84;21254;-80
2022/10/03 17:28:22;;;;;;;5.42;2.95;;;;;;;11.98;89.17;99485.38;1700390;84;21235;-80
2022/10/03 17:31:43;;;;;;;6.67;2.67;;;;;;;11.99;89.11;99490.64;1700912;84;21196;-80
2022/10/03 17:35:06;;;;;;;4.95;2.25;;;;;;;11.89;89.41;99499.78;1700403;84;21490;-80
2022/10/03 17:38:21;;;;;;;6.33;2.15;;;;;;;11.88;89.82;99499.99;1700877;84;21204;-80
2022/10/03 17:41:43;;;;;;;5.30;2.15;;;;;;;11.80;90.43;99503.71;1700143;84;21227;-80
2022/10/03 17:45:27;;;;;;;6.05;2.20;;;;;;;11.85;90.68;99498.49;1700433;84;21227;-80
2022/10/03 17:48:46;;;;;;;5.35;2.52;;;;;;;11.83;90.91;99494.28;1690478;84;21247;-80
2022/10/03 17:51:52;;;;;;;2.20;1.15;;;;;;;11.97;90.26;99490.02;1683725;84;21199;-80
2022/10/03 17:55:04;;;;;;;2.33;0.95;;;;;;;11.98;89.89;99488.96;1699781;84;21231;-80
2022/10/03 17:58:19;;;;;;;4.60;1.10;;;;;;;11.99;89.69;99490.64;1701373;84;21505;-80